sensor_id;sensor_type;location;lat;lon;timestamp;P1;durP1;ratioP1;P2;durP2;ratioP2
13309;SDS011;6723;48.256;16.402;2022-10-16T00:01:15;90.43;;;58.63;;
13309;SDS011;6723;48.256;16.402;2022-10-16T00:03:42;98.90;;;59.63;;
13309;SDS011;6723;48.256;16.402;2022-10-16T00:06:09;97.27;;;59.83;;
13309;SDS011;6723;48.256;16.402;2022-10-16T00:08:36;93.30;;;60.37;;
13309;SDS011;6723;48.256;16.402;2022-10-16T00:11:04;95.40;;;58.23;;
13309;SDS011;6723;48.256;16.402;2022-10-16T00:13:35;86.23;;;56.73;;
13309;SDS011;6723;48.256;16.402;2022-10-16T00:16:03;93.43;;;59.30;;
13309;SDS011;6723;48.256;16.402;2022-10-16T00:18:30;85.67;;;57.50;;
13309;SDS011;6723;48.256;16.402;2022-10-16T00:21:00;122.10;;;63.87;;
13309;SDS011;6723;48.256;16.402;2022-10-16T00:23:28;91.03;;;59.40;;
13309;SDS011;6723;48.256;16.402;2022-10-16T00:25:57;89.33;;;56.70;;
13309;SDS011;6723;48.256;16.402;2022-10-16T00:28:25;94.97;;;58.97;;
13309;SDS011;6723;48.256;16.402;2022-10-16T00:30:51;87.17;;;57.40;;
13309;SDS011;6723;48.256;16.402;2022-10-16T00:33:17;95.83;;;58.97;;
13309;SDS011;6723;48.256;16.402;2022-10-16T00:35:43;87.10;;;56.83;;
13309;SDS011;6723;48.256;16.402;2022-10-16T00:38:09;87.57;;;57.13;;
13309;SDS011;6723;48.256;16.402;2022-10-16T00:40:35;94.73;;;57.77;;
13309;SDS011;6723;48.256;16.402;2022-10-16T00:43:02;90.43;;;59.27;;
13309;SDS011;6723;48.256;16.402;2022-10-16T00:45:34;87.53;;;57.50;;
13309;SDS011;6723;48.256;16.402;2022-10-16T00:48:00;97.40;;;59.73;;
13309;SDS011;6723;48.256;16.402;2022-10-16T00:50:30;110.53;;;61.73;;
13309;SDS011;6723;48.256;16.402;2022-10-16T00:52:58;96.80;;;57.97;;
13309;SDS011;6723;48.256;16.402;2022-10-16T00:55:26;87.87;;;57.57;;
13309;SDS011;6723;48.256;16.402;2022-10-16T00:57:54;102.33;;;62.23;;
13309;SDS011;6723;48.256;16.402;2022-10-16T01:00:23;107.80;;;62.80;;
13309;SDS011;6723;48.256;16.402;2022-10-16T01:02:55;93.80;;;58.80;;
13309;SDS011;6723;48.256;16.402;2022-10-16T01:05:24;97.47;;;60.20;;
13309;SDS011;6723;48.256;16.402;2022-10-16T01:08:01;89.97;;;57.60;;
13309;SDS011;6723;48.256;16.402;2022-10-16T01:10:40;97.00;;;59.23;;
13309;SDS011;6723;48.256;16.402;2022-10-16T01:13:26;99.70;;;59.20;;
13309;SDS011;6723;48.256;16.402;2022-10-16T01:18:39;98.97;;;59.83;;
13309;SDS011;6723;48.256;16.402;2022-10-16T01:21:10;87.27;;;55.93;;
13309;SDS011;6723;48.256;16.402;2022-10-16T01:29:18;100.70;;;60.10;;
13309;SDS011;6723;48.256;16.402;2022-10-16T01:31:56;86.47;;;57.37;;
13309;SDS011;6723;48.256;16.402;2022-10-16T01:34:45;97.70;;;57.27;;
13309;SDS011;6723;48.256;16.402;2022-10-16T01:37:22;93.47;;;58.03;;
13309;SDS011;6723;48.256;16.402;2022-10-16T01:40:10;96.50;;;59.20;;
13309;SDS011;6723;48.256;16.402;2022-10-16T01:42:49;91.80;;;59.23;;
13309;SDS011;6723;48.256;16.402;2022-10-16T01:45:19;89.80;;;59.30;;
13309;SDS011;6723;48.256;16.402;2022-10-16T01:47:46;88.57;;;57.43;;
13309;SDS011;6723;48.256;16.402;2022-10-16T01:50:14;83.90;;;55.70;;
13309;SDS011;6723;48.256;16.402;2022-10-16T01:52:42;89.93;;;57.90;;
13309;SDS011;6723;48.256;16.402;2022-10-16T01:55:10;89.57;;;57.27;;
13309;SDS011;6723;48.256;16.402;2022-10-16T01:57:41;81.87;;;54.60;;
13309;SDS011;6723;48.256;16.402;2022-10-16T02:00:12;85.67;;;55.43;;
13309;SDS011;6723;48.256;16.402;2022-10-16T02:02:40;101.00;;;62.93;;
13309;SDS011;6723;48.256;16.402;2022-10-16T02:07:49;100.73;;;58.50;;
13309;SDS011;6723;48.256;16.402;2022-10-16T02:10:15;92.40;;;59.10;;
13309;SDS011;6723;48.256;16.402;2022-10-16T02:12:42;92.10;;;57.37;;
13309;SDS011;6723;48.256;16.402;2022-10-16T02:15:13;91.13;;;57.80;;
13309;SDS011;6723;48.256;16.402;2022-10-16T02:17:38;89.57;;;58.00;;
13309;SDS011;6723;48.256;16.402;2022-10-16T02:20:05;95.23;;;59.17;;
13309;SDS011;6723;48.256;16.402;2022-10-16T02:22:36;91.20;;;56.27;;
13309;SDS011;6723;48.256;16.402;2022-10-16T02:25:29;94.10;;;56.97;;
13309;SDS011;6723;48.256;16.402;2022-10-16T02:28:17;85.83;;;56.97;;
13309;SDS011;6723;48.256;16.402;2022-10-16T02:30:55;91.07;;;56.67;;
13309;SDS011;6723;48.256;16.402;2022-10-16T02:33:25;82.30;;;54.27;;
13309;SDS011;6723;48.256;16.402;2022-10-16T02:35:52;88.97;;;55.70;;
13309;SDS011;6723;48.256;16.402;2022-10-16T02:38:20;84.50;;;57.30;;
13309;SDS011;6723;48.256;16.402;2022-10-16T02:40:47;83.90;;;56.87;;
13309;SDS011;6723;48.256;16.402;2022-10-16T02:43:13;86.57;;;57.07;;
13309;SDS011;6723;48.256;16.402;2022-10-16T02:45:39;85.63;;;56.90;;
13309;SDS011;6723;48.256;16.402;2022-10-16T02:48:05;83.83;;;54.70;;
13309;SDS011;6723;48.256;16.402;2022-10-16T02:50:31;85.23;;;55.40;;
13309;SDS011;6723;48.256;16.402;2022-10-16T02:52:57;87.00;;;56.47;;
13309;SDS011;6723;48.256;16.402;2022-10-16T02:55:23;81.73;;;55.57;;
13309;SDS011;6723;48.256;16.402;2022-10-16T02:57:48;78.90;;;53.70;;
13309;SDS011;6723;48.256;16.402;2022-10-16T03:00:15;83.10;;;53.80;;
13309;SDS011;6723;48.256;16.402;2022-10-16T03:02:42;79.93;;;53.43;;
13309;SDS011;6723;48.256;16.402;2022-10-16T03:05:09;74.67;;;53.40;;
13309;SDS011;6723;48.256;16.402;2022-10-16T03:07:35;73.67;;;52.87;;
13309;SDS011;6723;48.256;16.402;2022-10-16T03:10:01;76.80;;;53.10;;
13309;SDS011;6723;48.256;16.402;2022-10-16T03:12:30;81.33;;;54.20;;
13309;SDS011;6723;48.256;16.402;2022-10-16T03:14:55;83.17;;;53.63;;
13309;SDS011;6723;48.256;16.402;2022-10-16T03:17:22;81.73;;;54.47;;
13309;SDS011;6723;48.256;16.402;2022-10-16T03:19:49;81.43;;;55.83;;
13309;SDS011;6723;48.256;16.402;2022-10-16T03:22:15;85.17;;;56.03;;
13309;SDS011;6723;48.256;16.402;2022-10-16T03:24:41;83.87;;;55.57;;
13309;SDS011;6723;48.256;16.402;2022-10-16T03:27:08;83.20;;;55.57;;
13309;SDS011;6723;48.256;16.402;2022-10-16T03:29:34;83.27;;;54.90;;
13309;SDS011;6723;48.256;16.402;2022-10-16T03:32:00;76.00;;;52.93;;
13309;SDS011;6723;48.256;16.402;2022-10-16T03:34:26;76.73;;;53.33;;
13309;SDS011;6723;48.256;16.402;2022-10-16T03:36:52;79.83;;;53.33;;
13309;SDS011;6723;48.256;16.402;2022-10-16T03:39:19;77.43;;;54.33;;
13309;SDS011;6723;48.256;16.402;2022-10-16T03:41:45;80.33;;;53.93;;
13309;SDS011;6723;48.256;16.402;2022-10-16T03:44:11;75.67;;;54.67;;
13309;SDS011;6723;48.256;16.402;2022-10-16T03:46:38;76.93;;;53.33;;
13309;SDS011;6723;48.256;16.402;2022-10-16T03:49:04;85.10;;;55.90;;
13309;SDS011;6723;48.256;16.402;2022-10-16T03:51:30;80.13;;;54.87;;
13309;SDS011;6723;48.256;16.402;2022-10-16T03:53:56;81.57;;;56.23;;
13309;SDS011;6723;48.256;16.402;2022-10-16T03:56:22;84.50;;;55.30;;
13309;SDS011;6723;48.256;16.402;2022-10-16T03:58:47;79.33;;;54.77;;
13309;SDS011;6723;48.256;16.402;2022-10-16T04:01:13;87.03;;;56.17;;
13309;SDS011;6723;48.256;16.402;2022-10-16T04:03:39;78.87;;;53.73;;
13309;SDS011;6723;48.256;16.402;2022-10-16T04:06:04;81.50;;;53.23;;
13309;SDS011;6723;48.256;16.402;2022-10-16T04:08:34;76.07;;;52.53;;
13309;SDS011;6723;48.256;16.402;2022-10-16T04:11:01;81.77;;;53.37;;
13309;SDS011;6723;48.256;16.402;2022-10-16T04:13:28;73.90;;;50.67;;
13309;SDS011;6723;48.256;16.402;2022-10-16T04:15:54;73.00;;;51.60;;
13309;SDS011;6723;48.256;16.402;2022-10-16T04:18:20;79.83;;;52.60;;
13309;SDS011;6723;48.256;16.402;2022-10-16T04:23:42;80.57;;;53.63;;
13309;SDS011;6723;48.256;16.402;2022-10-16T04:26:08;84.20;;;53.97;;
13309;SDS011;6723;48.256;16.402;2022-10-16T04:28:35;79.73;;;53.53;;
13309;SDS011;6723;48.256;16.402;2022-10-16T04:31:04;80.40;;;54.30;;
13309;SDS011;6723;48.256;16.402;2022-10-16T04:33:32;78.83;;;51.93;;
13309;SDS011;6723;48.256;16.402;2022-10-16T04:35:58;79.73;;;52.50;;
13309;SDS011;6723;48.256;16.402;2022-10-16T04:38:25;80.43;;;53.60;;
13309;SDS011;6723;48.256;16.402;2022-10-16T04:40:51;85.90;;;54.97;;
13309;SDS011;6723;48.256;16.402;2022-10-16T04:43:18;82.53;;;53.83;;
13309;SDS011;6723;48.256;16.402;2022-10-16T04:45:44;90.10;;;55.13;;
13309;SDS011;6723;48.256;16.402;2022-10-16T04:48:10;84.50;;;54.60;;
13309;SDS011;6723;48.256;16.402;2022-10-16T04:50:35;90.37;;;57.17;;
13309;SDS011;6723;48.256;16.402;2022-10-16T04:53:01;79.93;;;54.23;;
13309;SDS011;6723;48.256;16.402;2022-10-16T04:55:27;82.03;;;54.43;;
13309;SDS011;6723;48.256;16.402;2022-10-16T04:57:53;80.20;;;54.17;;
13309;SDS011;6723;48.256;16.402;2022-10-16T05:00:18;79.33;;;54.03;;
13309;SDS011;6723;48.256;16.402;2022-10-16T05:02:44;80.37;;;51.57;;
13309;SDS011;6723;48.256;16.402;2022-10-16T05:05:10;70.03;;;48.53;;
13309;SDS011;6723;48.256;16.402;2022-10-16T05:07:36;72.10;;;49.60;;
13309;SDS011;6723;48.256;16.402;2022-10-16T05:10:02;71.13;;;48.97;;
13309;SDS011;6723;48.256;16.402;2022-10-16T05:12:28;68.07;;;47.83;;
13309;SDS011;6723;48.256;16.402;2022-10-16T05:14:54;72.30;;;49.27;;
13309;SDS011;6723;48.256;16.402;2022-10-16T05:17:24;66.47;;;47.00;;
13309;SDS011;6723;48.256;16.402;2022-10-16T05:19:50;65.10;;;46.77;;
13309;SDS011;6723;48.256;16.402;2022-10-16T05:22:16;67.27;;;46.17;;
13309;SDS011;6723;48.256;16.402;2022-10-16T05:24:42;64.13;;;44.07;;
13309;SDS011;6723;48.256;16.402;2022-10-16T05:27:08;64.73;;;46.87;;
13309;SDS011;6723;48.256;16.402;2022-10-16T05:29:34;63.70;;;45.00;;
13309;SDS011;6723;48.256;16.402;2022-10-16T05:32:00;58.70;;;44.43;;
13309;SDS011;6723;48.256;16.402;2022-10-16T05:34:26;66.87;;;44.87;;
13309;SDS011;6723;48.256;16.402;2022-10-16T05:36:52;59.60;;;44.40;;
13309;SDS011;6723;48.256;16.402;2022-10-16T05:39:18;63.00;;;45.57;;
13309;SDS011;6723;48.256;16.402;2022-10-16T05:41:44;67.63;;;44.37;;
13309;SDS011;6723;48.256;16.402;2022-10-16T05:44:10;88.57;;;47.33;;
13309;SDS011;6723;48.256;16.402;2022-10-16T05:46:36;85.20;;;49.53;;
13309;SDS011;6723;48.256;16.402;2022-10-16T05:51:38;152.47;;;56.23;;
13309;SDS011;6723;48.256;16.402;2022-10-16T05:54:05;215.93;;;60.07;;
13309;SDS011;6723;48.256;16.402;2022-10-16T05:56:30;446.80;;;71.33;;
13309;SDS011;6723;48.256;16.402;2022-10-16T05:58:56;219.10;;;65.03;;
13309;SDS011;6723;48.256;16.402;2022-10-16T06:01:22;334.07;;;70.77;;
13309;SDS011;6723;48.256;16.402;2022-10-16T06:03:50;227.80;;;65.87;;
13309;SDS011;6723;48.256;16.402;2022-10-16T06:06:18;435.20;;;74.33;;
13309;SDS011;6723;48.256;16.402;2022-10-16T06:08:45;482.60;;;76.73;;
13309;SDS011;6723;48.256;16.402;2022-10-16T06:11:14;243.57;;;65.10;;
13309;SDS011;6723;48.256;16.402;2022-10-16T06:13:44;264.93;;;64.37;;
13309;SDS011;6723;48.256;16.402;2022-10-16T06:16:14;161.37;;;61.27;;
13309;SDS011;6723;48.256;16.402;2022-10-16T06:18:40;139.97;;;60.87;;
13309;SDS011;6723;48.256;16.402;2022-10-16T06:21:12;262.30;;;65.33;;
13309;SDS011;6723;48.256;16.402;2022-10-16T06:23:41;155.93;;;62.20;;
13309;SDS011;6723;48.256;16.402;2022-10-16T06:26:10;134.87;;;62.03;;
13309;SDS011;6723;48.256;16.402;2022-10-16T06:28:41;227.37;;;61.73;;
13309;SDS011;6723;48.256;16.402;2022-10-16T06:31:07;217.27;;;61.80;;
13309;SDS011;6723;48.256;16.402;2022-10-16T06:33:35;169.10;;;59.47;;
13309;SDS011;6723;48.256;16.402;2022-10-16T06:36:04;349.50;;;64.50;;
13309;SDS011;6723;48.256;16.402;2022-10-16T06:38:31;441.60;;;68.47;;
13309;SDS011;6723;48.256;16.402;2022-10-16T06:40:58;381.97;;;63.70;;
13309;SDS011;6723;48.256;16.402;2022-10-16T06:43:24;459.77;;;72.07;;
13309;SDS011;6723;48.256;16.402;2022-10-16T06:45:54;320.13;;;65.07;;
13309;SDS011;6723;48.256;16.402;2022-10-16T06:48:22;281.10;;;60.20;;
13309;SDS011;6723;48.256;16.402;2022-10-16T06:50:55;324.97;;;64.07;;
13309;SDS011;6723;48.256;16.402;2022-10-16T06:53:26;238.33;;;58.27;;
13309;SDS011;6723;48.256;16.402;2022-10-16T06:55:57;138.30;;;60.23;;
13309;SDS011;6723;48.256;16.402;2022-10-16T06:58:23;205.20;;;63.93;;
13309;SDS011;6723;48.256;16.402;2022-10-16T07:00:55;213.13;;;60.00;;
13309;SDS011;6723;48.256;16.402;2022-10-16T07:03:22;186.00;;;61.33;;
13309;SDS011;6723;48.256;16.402;2022-10-16T07:05:48;167.30;;;59.57;;
13309;SDS011;6723;48.256;16.402;2022-10-16T07:10:42;136.87;;;60.70;;
13309;SDS011;6723;48.256;16.402;2022-10-16T07:13:08;126.83;;;60.60;;
13309;SDS011;6723;48.256;16.402;2022-10-16T07:18:10;164.70;;;59.13;;
13309;SDS011;6723;48.256;16.402;2022-10-16T07:20:36;143.80;;;58.03;;
13309;SDS011;6723;48.256;16.402;2022-10-16T07:23:02;161.43;;;60.23;;
13309;SDS011;6723;48.256;16.402;2022-10-16T07:25:28;157.33;;;61.30;;
13309;SDS011;6723;48.256;16.402;2022-10-16T07:27:53;169.67;;;57.57;;
13309;SDS011;6723;48.256;16.402;2022-10-16T07:30:21;119.93;;;61.90;;
13309;SDS011;6723;48.256;16.402;2022-10-16T07:32:46;171.27;;;65.53;;
13309;SDS011;6723;48.256;16.402;2022-10-16T07:35:12;141.70;;;64.87;;
13309;SDS011;6723;48.256;16.402;2022-10-16T07:37:38;139.40;;;63.03;;
13309;SDS011;6723;48.256;16.402;2022-10-16T07:40:04;132.40;;;59.10;;
13309;SDS011;6723;48.256;16.402;2022-10-16T07:42:31;135.33;;;60.93;;
13309;SDS011;6723;48.256;16.402;2022-10-16T07:44:56;135.70;;;63.23;;
13309;SDS011;6723;48.256;16.402;2022-10-16T07:47:22;122.43;;;62.13;;
13309;SDS011;6723;48.256;16.402;2022-10-16T07:49:48;139.70;;;64.53;;
13309;SDS011;6723;48.256;16.402;2022-10-16T07:52:13;136.73;;;66.33;;
13309;SDS011;6723;48.256;16.402;2022-10-16T07:54:39;136.50;;;67.40;;
13309;SDS011;6723;48.256;16.402;2022-10-16T07:57:05;127.63;;;66.17;;
13309;SDS011;6723;48.256;16.402;2022-10-16T07:59:31;133.97;;;67.17;;
13309;SDS011;6723;48.256;16.402;2022-10-16T08:01:56;122.40;;;64.50;;
13309;SDS011;6723;48.256;16.402;2022-10-16T08:04:22;121.47;;;63.63;;
13309;SDS011;6723;48.256;16.402;2022-10-16T08:06:48;120.60;;;65.20;;
13309;SDS011;6723;48.256;16.402;2022-10-16T08:09:14;110.00;;;62.87;;
13309;SDS011;6723;48.256;16.402;2022-10-16T08:11:40;116.70;;;59.03;;
13309;SDS011;6723;48.256;16.402;2022-10-16T08:14:06;109.93;;;61.40;;
13309;SDS011;6723;48.256;16.402;2022-10-16T08:16:32;110.03;;;61.43;;
13309;SDS011;6723;48.256;16.402;2022-10-16T08:18:57;112.30;;;60.33;;
13309;SDS011;6723;48.256;16.402;2022-10-16T08:21:23;111.90;;;61.83;;
13309;SDS011;6723;48.256;16.402;2022-10-16T08:23:49;120.37;;;64.60;;
13309;SDS011;6723;48.256;16.402;2022-10-16T08:26:16;112.80;;;61.77;;
13309;SDS011;6723;48.256;16.402;2022-10-16T08:28:41;111.50;;;60.40;;
13309;SDS011;6723;48.256;16.402;2022-10-16T08:31:08;111.27;;;62.40;;
13309;SDS011;6723;48.256;16.402;2022-10-16T08:33:41;119.27;;;64.80;;
13309;SDS011;6723;48.256;16.402;2022-10-16T08:36:09;106.80;;;61.67;;
13309;SDS011;6723;48.256;16.402;2022-10-16T08:38:36;102.53;;;61.67;;
13309;SDS011;6723;48.256;16.402;2022-10-16T08:48:46;84.67;;;52.67;;
13309;SDS011;6723;48.256;16.402;2022-10-16T08:51:37;73.73;;;49.67;;
13309;SDS011;6723;48.256;16.402;2022-10-16T08:54:08;76.90;;;51.10;;
13309;SDS011;6723;48.256;16.402;2022-10-16T08:56:46;78.53;;;53.53;;
13309;SDS011;6723;48.256;16.402;2022-10-16T08:59:11;70.27;;;49.07;;
13309;SDS011;6723;48.256;16.402;2022-10-16T09:01:42;69.30;;;48.90;;
13309;SDS011;6723;48.256;16.402;2022-10-16T09:06:58;67.00;;;47.00;;
13309;SDS011;6723;48.256;16.402;2022-10-16T09:12:27;64.07;;;43.13;;
13309;SDS011;6723;48.256;16.402;2022-10-16T09:18:05;56.70;;;42.37;;
13309;SDS011;6723;48.256;16.402;2022-10-16T09:23:40;67.50;;;47.77;;
13309;SDS011;6723;48.256;16.402;2022-10-16T09:26:05;71.07;;;46.37;;
13309;SDS011;6723;48.256;16.402;2022-10-16T09:28:36;60.23;;;45.00;;
13309;SDS011;6723;48.256;16.402;2022-10-16T09:31:02;69.13;;;47.30;;
13309;SDS011;6723;48.256;16.402;2022-10-16T09:33:37;67.10;;;46.77;;
13309;SDS011;6723;48.256;16.402;2022-10-16T09:36:05;66.40;;;47.97;;
13309;SDS011;6723;48.256;16.402;2022-10-16T09:38:35;73.23;;;49.33;;
13309;SDS011;6723;48.256;16.402;2022-10-16T09:41:22;75.73;;;51.33;;
13309;SDS011;6723;48.256;16.402;2022-10-16T09:43:54;77.67;;;50.27;;
13309;SDS011;6723;48.256;16.402;2022-10-16T09:46:27;74.00;;;50.43;;
13309;SDS011;6723;48.256;16.402;2022-10-16T09:49:04;74.87;;;51.97;;
13309;SDS011;6723;48.256;16.402;2022-10-16T09:51:43;70.63;;;49.23;;
13309;SDS011;6723;48.256;16.402;2022-10-16T09:56:35;66.40;;;47.67;;
13309;SDS011;6723;48.256;16.402;2022-10-16T09:59:11;68.30;;;49.37;;
13309;SDS011;6723;48.256;16.402;2022-10-16T10:01:39;69.93;;;48.67;;
13309;SDS011;6723;48.256;16.402;2022-10-16T10:04:07;68.17;;;46.67;;
13309;SDS011;6723;48.256;16.402;2022-10-16T10:06:34;68.57;;;49.43;;
13309;SDS011;6723;48.256;16.402;2022-10-16T10:09:24;62.20;;;45.03;;
13309;SDS011;6723;48.256;16.402;2022-10-16T10:19:46;55.40;;;42.70;;
13309;SDS011;6723;48.256;16.402;2022-10-16T10:22:16;52.87;;;41.47;;
13309;SDS011;6723;48.256;16.402;2022-10-16T10:24:54;52.30;;;43.47;;
13309;SDS011;6723;48.256;16.402;2022-10-16T10:27:21;54.70;;;43.27;;
13309;SDS011;6723;48.256;16.402;2022-10-16T10:30:07;51.37;;;42.10;;
13309;SDS011;6723;48.256;16.402;2022-10-16T10:38:29;48.83;;;40.43;;
13309;SDS011;6723;48.256;16.402;2022-10-16T10:41:21;45.23;;;38.73;;
13309;SDS011;6723;48.256;16.402;2022-10-16T10:58:02;38.93;;;34.80;;
13309;SDS011;6723;48.256;16.402;2022-10-16T11:03:42;38.17;;;34.07;;
13309;SDS011;6723;48.256;16.402;2022-10-16T11:06:18;39.80;;;35.03;;
13309;SDS011;6723;48.256;16.402;2022-10-16T11:09:11;38.23;;;34.13;;
13309;SDS011;6723;48.256;16.402;2022-10-16T11:11:40;38.47;;;34.37;;
13309;SDS011;6723;48.256;16.402;2022-10-16T11:14:14;36.93;;;32.87;;
13309;SDS011;6723;48.256;16.402;2022-10-16T11:16:51;37.73;;;33.73;;
13309;SDS011;6723;48.256;16.402;2022-10-16T11:19:38;36.47;;;32.57;;
13309;SDS011;6723;48.256;16.402;2022-10-16T11:30:30;32.93;;;29.60;;
13309;SDS011;6723;48.256;16.402;2022-10-16T11:38:27;35.70;;;32.10;;
13309;SDS011;6723;48.256;16.402;2022-10-16T11:49:32;36.00;;;32.47;;
13309;SDS011;6723;48.256;16.402;2022-10-16T11:58:08;37.53;;;33.77;;
13309;SDS011;6723;48.256;16.402;2022-10-16T12:00:48;37.60;;;33.53;;
13309;SDS011;6723;48.256;16.402;2022-10-16T12:03:26;37.53;;;33.73;;
13309;SDS011;6723;48.256;16.402;2022-10-16T12:08:52;36.40;;;32.60;;
13309;SDS011;6723;48.256;16.402;2022-10-16T12:11:22;38.50;;;32.60;;
13309;SDS011;6723;48.256;16.402;2022-10-16T12:13:48;36.97;;;32.90;;
13309;SDS011;6723;48.256;16.402;2022-10-16T12:18:41;35.47;;;31.67;;
13309;SDS011;6723;48.256;16.402;2022-10-16T12:21:09;33.60;;;29.97;;
13309;SDS011;6723;48.256;16.402;2022-10-16T12:23:45;33.63;;;30.13;;
13309;SDS011;6723;48.256;16.402;2022-10-16T12:26:25;33.80;;;30.47;;
13309;SDS011;6723;48.256;16.402;2022-10-16T12:29:08;35.00;;;31.30;;
13309;SDS011;6723;48.256;16.402;2022-10-16T12:31:47;37.43;;;33.53;;
13309;SDS011;6723;48.256;16.402;2022-10-16T12:34:22;36.43;;;32.67;;
13309;SDS011;6723;48.256;16.402;2022-10-16T12:36:52;37.13;;;32.97;;
13309;SDS011;6723;48.256;16.402;2022-10-16T12:39:27;38.43;;;34.40;;
13309;SDS011;6723;48.256;16.402;2022-10-16T12:42:04;38.13;;;33.60;;
13309;SDS011;6723;48.256;16.402;2022-10-16T12:44:44;40.97;;;34.13;;
13309;SDS011;6723;48.256;16.402;2022-10-16T12:47:19;38.77;;;34.33;;
13309;SDS011;6723;48.256;16.402;2022-10-16T12:50:00;43.07;;;34.63;;
13309;SDS011;6723;48.256;16.402;2022-10-16T12:52:35;35.87;;;32.00;;
13309;SDS011;6723;48.256;16.402;2022-10-16T12:55:03;39.57;;;35.00;;
13309;SDS011;6723;48.256;16.402;2022-10-16T12:57:33;38.13;;;33.73;;
13309;SDS011;6723;48.256;16.402;2022-10-16T13:00:13;38.00;;;33.97;;
13309;SDS011;6723;48.256;16.402;2022-10-16T13:13:50;41.03;;;36.10;;
13309;SDS011;6723;48.256;16.402;2022-10-16T13:16:33;42.93;;;37.70;;
13309;SDS011;6723;48.256;16.402;2022-10-16T13:19:15;42.17;;;37.10;;
13309;SDS011;6723;48.256;16.402;2022-10-16T13:32:45;39.30;;;33.37;;
13309;SDS011;6723;48.256;16.402;2022-10-16T13:35:26;38.43;;;31.13;;
13309;SDS011;6723;48.256;16.402;2022-10-16T13:38:13;38.27;;;30.33;;
13309;SDS011;6723;48.256;16.402;2022-10-16T13:40:48;37.30;;;31.47;;
13309;SDS011;6723;48.256;16.402;2022-10-16T13:43:38;36.43;;;31.13;;
13309;SDS011;6723;48.256;16.402;2022-10-16T13:48:39;36.50;;;30.77;;
13309;SDS011;6723;48.256;16.402;2022-10-16T13:53:42;37.50;;;29.67;;
13309;SDS011;6723;48.256;16.402;2022-10-16T13:56:10;35.93;;;30.47;;
13309;SDS011;6723;48.256;16.402;2022-10-16T13:58:44;35.53;;;30.30;;
13309;SDS011;6723;48.256;16.402;2022-10-16T14:01:18;35.83;;;30.20;;
13309;SDS011;6723;48.256;16.402;2022-10-16T14:03:48;36.57;;;30.60;;
13309;SDS011;6723;48.256;16.402;2022-10-16T14:06:16;37.40;;;30.07;;
13309;SDS011;6723;48.256;16.402;2022-10-16T14:08:59;32.00;;;28.60;;
13309;SDS011;6723;48.256;16.402;2022-10-16T14:11:36;36.20;;;30.03;;
13309;SDS011;6723;48.256;16.402;2022-10-16T14:14:13;32.13;;;27.70;;
13309;SDS011;6723;48.256;16.402;2022-10-16T14:16:41;34.17;;;27.23;;
13309;SDS011;6723;48.256;16.402;2022-10-16T14:21:48;36.47;;;28.93;;
13309;SDS011;6723;48.256;16.402;2022-10-16T14:24:34;32.40;;;27.47;;
13309;SDS011;6723;48.256;16.402;2022-10-16T14:27:01;37.93;;;27.30;;
13309;SDS011;6723;48.256;16.402;2022-10-16T14:29:28;30.83;;;27.27;;
13309;SDS011;6723;48.256;16.402;2022-10-16T14:31:58;32.53;;;26.93;;
13309;SDS011;6723;48.256;16.402;2022-10-16T14:34:27;33.77;;;27.10;;
13309;SDS011;6723;48.256;16.402;2022-10-16T14:36:58;30.57;;;26.50;;
13309;SDS011;6723;48.256;16.402;2022-10-16T14:39:29;35.57;;;28.27;;
13309;SDS011;6723;48.256;16.402;2022-10-16T14:41:56;32.40;;;27.10;;
13309;SDS011;6723;48.256;16.402;2022-10-16T14:44:26;32.17;;;27.17;;
13309;SDS011;6723;48.256;16.402;2022-10-16T14:46:57;30.33;;;26.87;;
13309;SDS011;6723;48.256;16.402;2022-10-16T14:49:24;31.93;;;25.77;;
13309;SDS011;6723;48.256;16.402;2022-10-16T14:51:53;30.87;;;26.60;;
13309;SDS011;6723;48.256;16.402;2022-10-16T14:54:18;32.37;;;24.67;;
13309;SDS011;6723;48.256;16.402;2022-10-16T14:59:17;32.40;;;26.00;;
13309;SDS011;6723;48.256;16.402;2022-10-16T15:01:48;35.57;;;26.57;;
13309;SDS011;6723;48.256;16.402;2022-10-16T15:04:14;32.43;;;26.67;;
13309;SDS011;6723;48.256;16.402;2022-10-16T15:06:41;31.67;;;25.67;;
13309;SDS011;6723;48.256;16.402;2022-10-16T15:09:07;30.13;;;26.43;;
13309;SDS011;6723;48.256;16.402;2022-10-16T15:11:33;31.77;;;26.77;;
13309;SDS011;6723;48.256;16.402;2022-10-16T15:13:59;31.43;;;25.53;;
13309;SDS011;6723;48.256;16.402;2022-10-16T15:16:25;30.80;;;24.63;;
13309;SDS011;6723;48.256;16.402;2022-10-16T15:18:51;30.00;;;25.27;;
13309;SDS011;6723;48.256;16.402;2022-10-16T15:21:23;33.17;;;26.10;;
13309;SDS011;6723;48.256;16.402;2022-10-16T15:23:49;29.47;;;25.87;;
13309;SDS011;6723;48.256;16.402;2022-10-16T15:26:16;30.40;;;25.80;;
13309;SDS011;6723;48.256;16.402;2022-10-16T15:28:42;29.53;;;24.57;;
13309;SDS011;6723;48.256;16.402;2022-10-16T15:31:07;35.10;;;25.67;;
13309;SDS011;6723;48.256;16.402;2022-10-16T15:33:33;29.60;;;24.63;;
13309;SDS011;6723;48.256;16.402;2022-10-16T15:36:00;31.57;;;26.03;;
13309;SDS011;6723;48.256;16.402;2022-10-16T15:38:27;30.80;;;25.20;;
13309;SDS011;6723;48.256;16.402;2022-10-16T15:40:54;29.07;;;23.87;;
13309;SDS011;6723;48.256;16.402;2022-10-16T15:43:20;34.00;;;25.37;;
13309;SDS011;6723;48.256;16.402;2022-10-16T15:45:52;31.93;;;24.83;;
13309;SDS011;6723;48.256;16.402;2022-10-16T15:48:28;34.77;;;25.37;;
13309;SDS011;6723;48.256;16.402;2022-10-16T15:50:55;28.70;;;24.67;;
13309;SDS011;6723;48.256;16.402;2022-10-16T15:53:21;31.93;;;25.50;;
13309;SDS011;6723;48.256;16.402;2022-10-16T15:55:46;32.20;;;24.70;;
13309;SDS011;6723;48.256;16.402;2022-10-16T15:58:12;35.70;;;27.03;;
13309;SDS011;6723;48.256;16.402;2022-10-16T16:00:38;34.10;;;26.40;;
13309;SDS011;6723;48.256;16.402;2022-10-16T16:03:04;34.63;;;26.83;;
13309;SDS011;6723;48.256;16.402;2022-10-16T16:05:30;32.70;;;27.33;;
13309;SDS011;6723;48.256;16.402;2022-10-16T16:07:56;49.47;;;40.63;;
13309;SDS011;6723;48.256;16.402;2022-10-16T16:10:22;36.53;;;30.67;;
13309;SDS011;6723;48.256;16.402;2022-10-16T16:12:48;37.13;;;28.83;;
13309;SDS011;6723;48.256;16.402;2022-10-16T16:15:17;32.43;;;26.60;;
13309;SDS011;6723;48.256;16.402;2022-10-16T16:17:44;36.60;;;27.97;;
13309;SDS011;6723;48.256;16.402;2022-10-16T16:20:10;31.57;;;27.17;;
13309;SDS011;6723;48.256;16.402;2022-10-16T16:22:37;34.30;;;26.10;;
13309;SDS011;6723;48.256;16.402;2022-10-16T16:25:03;33.00;;;24.57;;
13309;SDS011;6723;48.256;16.402;2022-10-16T16:27:29;32.17;;;26.03;;
13309;SDS011;6723;48.256;16.402;2022-10-16T16:29:58;36.80;;;27.70;;
13309;SDS011;6723;48.256;16.402;2022-10-16T16:32:25;33.60;;;26.30;;
13309;SDS011;6723;48.256;16.402;2022-10-16T16:34:51;32.03;;;25.70;;
13309;SDS011;6723;48.256;16.402;2022-10-16T16:37:17;34.43;;;26.77;;
13309;SDS011;6723;48.256;16.402;2022-10-16T16:39:42;32.37;;;26.03;;
13309;SDS011;6723;48.256;16.402;2022-10-16T16:42:08;33.77;;;24.93;;
13309;SDS011;6723;48.256;16.402;2022-10-16T16:44:35;32.20;;;26.60;;
13309;SDS011;6723;48.256;16.402;2022-10-16T16:47:02;34.37;;;27.73;;
13309;SDS011;6723;48.256;16.402;2022-10-16T16:49:28;31.03;;;26.20;;
13309;SDS011;6723;48.256;16.402;2022-10-16T16:51:54;35.63;;;26.70;;